sensor_id;sensor_type;location;lat;lon;timestamp;temperature;humidity
22071;DHT22;11200;51.488;6.668;2023-02-19T07:30:39;9.60;99.90
22071;DHT22;11200;51.488;6.668;2023-02-19T07:33:04;9.50;99.90
22071;DHT22;11200;51.488;6.668;2023-02-19T07:35:30;10.10;99.90
22071;DHT22;11200;51.488;6.668;2023-02-19T07:40:36;9.60;99.90
22071;DHT22;11200;51.488;6.668;2023-02-19T07:43:02;9.60;99.90
22071;DHT22;11200;51.488;6.668;2023-02-19T07:45:28;9.70;99.90
22071;DHT22;11200;51.488;6.668;2023-02-19T07:47:53;9.70;99.90
22071;DHT22;11200;51.488;6.668;2023-02-19T07:50:19;9.70;99.90
22071;DHT22;11200;51.488;6.668;2023-02-19T07:52:44;9.70;99.90
22071;DHT22;11200;51.488;6.668;2023-02-19T07:55:10;9.60;99.90
22071;DHT22;11200;51.488;6.668;2023-02-19T07:57:36;9.70;99.90
22071;DHT22;11200;51.488;6.668;2023-02-19T08:00:02;9.70;99.90
22071;DHT22;11200;51.488;6.668;2023-02-19T08:02:27;9.70;99.90
22071;DHT22;11200;51.488;6.668;2023-02-19T08:05:11;9.70;99.90
22071;DHT22;11200;51.488;6.668;2023-02-19T08:07:38;9.70;99.90
22071;DHT22;11200;51.488;6.668;2023-02-19T08:10:04;9.70;99.90
22071;DHT22;11200;51.488;6.668;2023-02-19T08:12:58;9.70;99.90
22071;DHT22;11200;51.488;6.668;2023-02-19T08:15:46;9.70;99.90
22071;DHT22;11200;51.488;6.668;2023-02-19T08:18:13;9.70;99.90
22071;DHT22;11200;51.488;6.668;2023-02-19T08:20:40;9.80;99.90
22071;DHT22;11200;51.488;6.668;2023-02-19T08:23:07;9.70;99.90
22071;DHT22;11200;51.488;6.668;2023-02-19T08:25:33;9.70;99.90
22071;DHT22;11200;51.488;6.668;2023-02-19T08:27:59;9.80;99.90
22071;DHT22;11200;51.488;6.668;2023-02-19T08:30:26;9.80;99.90
22071;DHT22;11200;51.488;6.668;2023-02-19T08:32:52;9.80;99.90
22071;DHT22;11200;51.488;6.668;2023-02-19T08:35:18;9.90;99.90
22071;DHT22;11200;51.488;6.668;2023-02-19T08:37:43;9.90;99.90
22071;DHT22;11200;51.488;6.668;2023-02-19T08:40:09;9.80;99.90
22071;DHT22;11200;51.488;6.668;2023-02-19T08:42:35;9.90;99.90
22071;DHT22;11200;51.488;6.668;2023-02-19T08:45:01;9.90;99.90
22071;DHT22;11200;51.488;6.668;2023-02-19T08:47:26;9.90;99.90
22071;DHT22;11200;51.488;6.668;2023-02-19T08:49:52;9.90;99.90
22071;DHT22;11200;51.488;6.668;2023-02-19T08:52:18;9.90;99.90
22071;DHT22;11200;51.488;6.668;2023-02-19T08:54:44;10.00;99.90
22071;DHT22;11200;51.488;6.668;2023-02-19T08:57:10;10.00;99.90
22071;DHT22;11200;51.488;6.668;2023-02-19T08:59:35;10.10;99.90
22071;DHT22;11200;51.488;6.668;2023-02-19T09:02:01;10.10;99.90
22071;DHT22;11200;51.488;6.668;2023-02-19T09:04:27;10.20;99.90
22071;DHT22;11200;51.488;6.668;2023-02-19T09:06:52;10.30;99.90
22071;DHT22;11200;51.488;6.668;2023-02-19T09:09:18;10.30;99.90
22071;DHT22;11200;51.488;6.668;2023-02-19T09:11:43;10.30;99.90
22071;DHT22;11200;51.488;6.668;2023-02-19T09:14:09;10.30;99.90
22071;DHT22;11200;51.488;6.668;2023-02-19T09:16:35;10.30;99.90
22071;DHT22;11200;51.488;6.668;2023-02-19T09:19:02;10.30;99.90
22071;DHT22;11200;51.488;6.668;2023-02-19T09:21:28;10.30;99.90
22071;DHT22;11200;51.488;6.668;2023-02-19T09:23:54;10.30;99.90
22071;DHT22;11200;51.488;6.668;2023-02-19T09:26:19;10.30;99.90
22071;DHT22;11200;51.488;6.668;2023-02-19T09:28:45;10.30;99.90
22071;DHT22;11200;51.488;6.668;2023-02-19T09:31:13;10.30;99.90
22071;DHT22;11200;51.488;6.668;2023-02-19T09:33:46;10.20;99.90
22071;DHT22;11200;51.488;6.668;2023-02-19T09:36:14;10.40;99.90
22071;DHT22;11200;51.488;6.668;2023-02-19T09:38:40;10.40;99.90
22071;DHT22;11200;51.488;6.668;2023-02-19T09:41:29;10.40;99.90
22071;DHT22;11200;51.488;6.668;2023-02-19T09:43:57;10.50;99.90
22071;DHT22;11200;51.488;6.668;2023-02-19T09:46:27;10.40;99.90
22071;DHT22;11200;51.488;6.668;2023-02-19T09:49:01;10.40;99.90
22071;DHT22;11200;51.488;6.668;2023-02-19T09:51:28;10.50;99.90
22071;DHT22;11200;51.488;6.668;2023-02-19T09:53:56;10.50;99.90
22071;DHT22;11200;51.488;6.668;2023-02-19T09:56:24;10.50;99.90
22071;DHT22;11200;51.488;6.668;2023-02-19T09:58:53;10.60;99.90
22071;DHT22;11200;51.488;6.668;2023-02-19T10:01:20;10.70;99.90
22071;DHT22;11200;51.488;6.668;2023-02-19T10:03:47;10.70;99.90
22071;DHT22;11200;51.488;6.668;2023-02-19T10:06:20;10.90;99.90
22071;DHT22;11200;51.488;6.668;2023-02-19T10:08:50;10.80;99.90
22071;DHT22;11200;51.488;6.668;2023-02-19T10:11:17;10.90;99.90
22071;DHT22;11200;51.488;6.668;2023-02-19T10:13:49;10.90;99.90
22071;DHT22;11200;51.488;6.668;2023-02-19T10:16:20;11.00;99.90
22071;DHT22;11200;51.488;6.668;2023-02-19T10:18:47;11.00;99.90
22071;DHT22;11200;51.488;6.668;2023-02-19T10:21:21;11.00;99.90
22071;DHT22;11200;51.488;6.668;2023-02-19T10:23:53;11.10;99.90
22071;DHT22;11200;51.488;6.668;2023-02-19T10:26:21;11.20;99.90
22071;DHT22;11200;51.488;6.668;2023-02-19T10:28:47;11.20;99.90
22071;DHT22;11200;51.488;6.668;2023-02-19T10:31:18;11.20;99.90
22071;DHT22;11200;51.488;6.668;2023-02-19T10:33:51;11.30;99.90
22071;DHT22;11200;51.488;6.668;2023-02-19T10:36:40;11.30;99.90
22071;DHT22;11200;51.488;6.668;2023-02-19T10:41:50;11.40;99.90
22071;DHT22;11200;51.488;6.668;2023-02-19T10:44:23;11.50;99.90
22071;DHT22;11200;51.488;6.668;2023-02-19T10:46:52;11.60;99.90
22071;DHT22;11200;51.488;6.668;2023-02-19T10:49:32;11.70;99.90
22071;DHT22;11200;51.488;6.668;2023-02-19T10:52:09;11.80;99.90
22071;DHT22;11200;51.488;6.668;2023-02-19T10:54:42;11.90;99.90
22071;DHT22;11200;51.488;6.668;2023-02-19T11:02:38;12.00;99.90
22071;DHT22;11200;51.488;6.668;2023-02-19T11:07:56;11.90;99.90
22071;DHT22;11200;51.488;6.668;2023-02-19T11:10:29;11.90;99.90
22071;DHT22;11200;51.488;6.668;2023-02-19T11:13:01;11.90;99.90
22071;DHT22;11200;51.488;6.668;2023-02-19T11:15:34;11.90;99.90
22071;DHT22;11200;51.488;6.668;2023-02-19T11:20:54;11.90;99.90
22071;DHT22;11200;51.488;6.668;2023-02-19T11:23:33;11.90;99.90
22071;DHT22;11200;51.488;6.668;2023-02-19T11:26:03;11.90;99.90
22071;DHT22;11200;51.488;6.668;2023-02-19T11:28:36;12.00;99.90
22071;DHT22;11200;51.488;6.668;2023-02-19T11:31:18;12.10;99.90
22071;DHT22;11200;51.488;6.668;2023-02-19T11:34:01;12.10;99.90
22071;DHT22;11200;51.488;6.668;2023-02-19T11:36:34;12.10;99.90
22071;DHT22;11200;51.488;6.668;2023-02-19T11:50:38;12.00;99.90
22071;DHT22;11200;51.488;6.668;2023-02-19T11:53:26;12.00;99.90
22071;DHT22;11200;51.488;6.668;2023-02-19T12:10:24;11.90;99.90
22071;DHT22;11200;51.488;6.668;2023-02-19T12:12:59;11.90;99.90
22071;DHT22;11200;51.488;6.668;2023-02-19T12:38:16;11.70;99.90
22071;DHT22;11200;51.488;6.668;2023-02-19T12:43:41;11.70;99.90
22071;DHT22;11200;51.488;6.668;2023-02-19T12:46:17;11.70;99.90
22071;DHT22;11200;51.488;6.668;2023-02-19T12:51:29;11.70;99.90
22071;DHT22;11200;51.488;6.668;2023-02-19T12:54:01;11.70;99.90
22071;DHT22;11200;51.488;6.668;2023-02-19T12:56:39;11.70;99.90
22071;DHT22;11200;51.488;6.668;2023-02-19T12:59:24;11.70;99.90
22071;DHT22;11200;51.488;6.668;2023-02-19T13:02:09;11.70;99.90
22071;DHT22;11200;51.488;6.668;2023-02-19T13:04:46;11.70;99.90
22071;DHT22;11200;51.488;6.668;2023-02-19T13:07:21;11.70;99.90
22071;DHT22;11200;51.488;6.668;2023-02-19T13:09:52;11.60;99.90
22071;DHT22;11200;51.488;6.668;2023-02-19T13:12:31;11.60;99.90
22071;DHT22;11200;51.488;6.668;2023-02-19T13:15:08;11.60;99.90
22071;DHT22;11200;51.488;6.668;2023-02-19T13:20:33;11.60;99.90
22071;DHT22;11200;51.488;6.668;2023-02-19T13:37:09;11.30;99.90
22071;DHT22;11200;51.488;6.668;2023-02-19T13:39:36;11.50;99.90
22071;DHT22;11200;51.488;6.668;2023-02-19T13:42:02;11.50;99.90
22071;DHT22;11200;51.488;6.668;2023-02-19T13:44:32;11.50;99.90
22071;DHT22;11200;51.488;6.668;2023-02-19T13:46:58;11.50;99.90
22071;DHT22;11200;51.488;6.668;2023-02-19T14:01:04;11.30;99.90
22071;DHT22;11200;51.488;6.668;2023-02-19T14:06:07;11.30;99.90
22071;DHT22;11200;51.488;6.668;2023-02-19T14:11:15;11.20;99.90
22071;DHT22;11200;51.488;6.668;2023-02-19T14:18:55;11.20;99.90
22071;DHT22;11200;51.488;6.668;2023-02-19T14:21:33;11.20;99.90
22071;DHT22;11200;51.488;6.668;2023-02-19T14:23:59;11.20;99.90
22071;DHT22;11200;51.488;6.668;2023-02-19T14:26:26;11.10;99.90
22071;DHT22;11200;51.488;6.668;2023-02-19T14:28:55;11.10;99.90
22071;DHT22;11200;51.488;6.668;2023-02-19T14:31:35;11.10;99.90
22071;DHT22;11200;51.488;6.668;2023-02-19T14:34:21;11.10;99.90
22071;DHT22;11200;51.488;6.668;2023-02-19T14:36:52;11.00;99.90
22071;DHT22;11200;51.488;6.668;2023-02-19T14:39:32;11.00;99.90
22071;DHT22;11200;51.488;6.668;2023-02-19T14:42:15;11.00;99.90
22071;DHT22;11200;51.488;6.668;2023-02-19T14:44:51;11.00;99.90
22071;DHT22;11200;51.488;6.668;2023-02-19T14:47:23;11.00;99.90
22071;DHT22;11200;51.488;6.668;2023-02-19T14:49:58;10.90;99.90
22071;DHT22;11200;51.488;6.668;2023-02-19T14:52:41;10.90;99.90
22071;DHT22;11200;51.488;6.668;2023-02-19T14:57:42;10.90;99.90
22071;DHT22;11200;51.488;6.668;2023-02-19T15:00:33;10.90;99.90
22071;DHT22;11200;51.488;6.668;2023-02-19T15:02:59;10.80;99.90
22071;DHT22;11200;51.488;6.668;2023-02-19T15:05:29;10.80;99.90
22071;DHT22;11200;51.488;6.668;2023-02-19T15:07:58;10.80;99.90
22071;DHT22;11200;51.488;6.668;2023-02-19T15:10:27;10.80;99.90
22071;DHT22;11200;51.488;6.668;2023-02-19T15:12:59;10.70;99.90
22071;DHT22;11200;51.488;6.668;2023-02-19T15:15:31;10.80;99.90
22071;DHT22;11200;51.488;6.668;2023-02-19T15:17:59;10.80;99.90
22071;DHT22;11200;51.488;6.668;2023-02-19T15:20:31;10.80;99.90
22071;DHT22;11200;51.488;6.668;2023-02-19T15:22:59;10.80;99.90
22071;DHT22;11200;51.488;6.668;2023-02-19T15:25:35;10.70;99.90
22071;DHT22;11200;51.488;6.668;2023-02-19T15:33:21;10.70;99.90
22071;DHT22;11200;51.488;6.668;2023-02-19T15:35:49;10.70;99.90
22071;DHT22;11200;51.488;6.668;2023-02-19T15:38:15;10.60;99.90
22071;DHT22;11200;51.488;6.668;2023-02-19T15:40:47;10.60;99.90
22071;DHT22;11200;51.488;6.668;2023-02-19T15:45:57;10.60;99.90
22071;DHT22;11200;51.488;6.668;2023-02-19T15:48:26;10.60;99.90
22071;DHT22;11200;51.488;6.668;2023-02-19T15:51:00;10.50;99.90
22071;DHT22;11200;51.488;6.668;2023-02-19T15:53:35;10.50;99.90
22071;DHT22;11200;51.488;6.668;2023-02-19T15:59:05;10.40;99.90
22071;DHT22;11200;51.488;6.668;2023-02-19T16:01:38;10.50;99.90
22071;DHT22;11200;51.488;6.668;2023-02-19T16:04:13;10.40;99.90
22071;DHT22;11200;51.488;6.668;2023-02-19T16:06:58;10.40;99.90
22071;DHT22;11200;51.488;6.668;2023-02-19T16:09:38;10.40;99.90
22071;DHT22;11200;51.488;6.668;2023-02-19T16:12:19;10.30;99.90
22071;DHT22;11200;51.488;6.668;2023-02-19T16:14:45;10.30;99.90
22071;DHT22;11200;51.488;6.668;2023-02-19T16:17:15;10.30;99.90
22071;DHT22;11200;51.488;6.668;2023-02-19T16:22:15;9.90;99.90
22071;DHT22;11200;51.488;6.668;2023-02-19T16:24:44;10.20;99.90
22071;DHT22;11200;51.488;6.668;2023-02-19T16:27:12;10.20;99.90
22071;DHT22;11200;51.488;6.668;2023-02-19T16:29:39;10.20;99.90
22071;DHT22;11200;51.488;6.668;2023-02-19T16:32:06;10.20;99.90
22071;DHT22;11200;51.488;6.668;2023-02-19T16:34:39;10.20;99.90
22071;DHT22;11200;51.488;6.668;2023-02-19T16:38:10;10.10;99.90
22071;DHT22;11200;51.488;6.668;2023-02-19T16:40:52;10.10;99.90
22071;DHT22;11200;51.488;6.668;2023-02-19T16:43:41;10.10;99.90
22071;DHT22;11200;51.488;6.668;2023-02-19T16:46:11;10.00;99.90
22071;DHT22;11200;51.488;6.668;2023-02-19T16:48:37;10.00;99.90
22071;DHT22;11200;51.488;6.668;2023-02-19T16:51:07;10.00;99.90
22071;DHT22;11200;51.488;6.668;2023-02-19T16:53:33;10.00;99.90
22071;DHT22;11200;51.488;6.668;2023-02-19T16:55:59;9.90;99.90
22071;DHT22;11200;51.488;6.668;2023-02-19T16:58:25;9.90;99.90
22071;DHT22;11200;51.488;6.668;2023-02-19T17:00:51;9.90;99.90
22071;DHT22;11200;51.488;6.668;2023-02-19T17:03:20;9.90;99.90
22071;DHT22;11200;51.488;6.668;2023-02-19T17:05:46;9.80;99.90
22071;DHT22;11200;51.488;6.668;2023-02-19T17:08:43;9.80;99.90
22071;DHT22;11200;51.488;6.668;2023-02-19T17:11:11;9.80;99.90
22071;DHT22;11200;51.488;6.668;2023-02-19T17:13:38;9.80;99.90
22071;DHT22;11200;51.488;6.668;2023-02-19T17:16:04;9.70;99.90
22071;DHT22;11200;51.488;6.668;2023-02-19T17:18:30;9.70;99.90
22071;DHT22;11200;51.488;6.668;2023-02-19T17:23:40;9.70;99.90
22071;DHT22;11200;51.488;6.668;2023-02-19T17:26:18;9.70;99.90
22071;DHT22;11200;51.488;6.668;2023-02-19T17:28:44;9.60;99.90
22071;DHT22;11200;51.488;6.668;2023-02-19T17:31:11;9.60;99.90
22071;DHT22;11200;51.488;6.668;2023-02-19T17:33:38;9.60;99.90
22071;DHT22;11200;51.488;6.668;2023-02-19T17:36:04;9.60;99.90
22071;DHT22;11200;51.488;6.668;2023-02-19T17:38:30;9.70;99.90
22071;DHT22;11200;51.488;6.668;2023-02-19T17:40:56;9.50;99.90
22071;DHT22;11200;51.488;6.668;2023-02-19T17:43:21;9.60;99.90
22071;DHT22;11200;51.488;6.668;2023-02-19T17:45:48;9.50;99.90
22071;DHT22;11200;51.488;6.668;2023-02-19T17:48:14;9.50;99.90
22071;DHT22;11200;51.488;6.668;2023-02-19T17:50:40;9.50;99.90
22071;DHT22;11200;51.488;6.668;2023-02-19T17:53:05;9.40;99.90
22071;DHT22;11200;51.488;6.668;2023-02-19T17:55:31;9.80;99.90
22071;DHT22;11200;51.488;6.668;2023-02-19T17:57:58;9.40;99.90
22071;DHT22;11200;51.488;6.668;2023-02-19T18:00:26;9.40;99.90
22071;DHT22;11200;51.488;6.668;2023-02-19T18:02:52;9.40;99.90
22071;DHT22;11200;51.488;6.668;2023-02-19T18:05:18;9.30;99.90
22071;DHT22;11200;51.488;6.668;2023-02-19T18:07:45;9.30;99.90
22071;DHT22;11200;51.488;6.668;2023-02-19T18:10:12;9.30;99.90
22071;DHT22;11200;51.488;6.668;2023-02-19T18:12:38;9.30;99.90
22071;DHT22;11200;51.488;6.668;2023-02-19T18:15:05;9.30;99.90
22071;DHT22;11200;51.488;6.668;2023-02-19T18:17:32;9.20;99.90
22071;DHT22;11200;51.488;6.668;2023-02-19T18:19:58;9.30;99.90
22071;DHT22;11200;51.488;6.668;2023-02-19T18:22:23;9.20;99.90
22071;DHT22;11200;51.488;6.668;2023-02-19T18:24:50;9.20;99.90
22071;DHT22;11200;51.488;6.668;2023-02-19T18:27:17;9.20;99.90
22071;DHT22;11200;51.488;6.668;2023-02-19T18:29:51;9.20;99.90
22071;DHT22;11200;51.488;6.668;2023-02-19T18:32:19;9.20;99.90
22071;DHT22;11200;51.488;6.668;2023-02-19T18:34:55;9.20;99.90
22071;DHT22;11200;51.488;6.668;2023-02-19T18:37:23;9.10;99.90
22071;DHT22;11200;51.488;6.668;2023-02-19T18:39:49;9.10;99.90
22071;DHT22;11200;51.488;6.668;2023-02-19T18:42:15;9.10;99.90
22071;DHT22;11200;51.488;6.668;2023-02-19T18:44:41;9.10;99.90
22071;DHT22;11200;51.488;6.668;2023-02-19T18:47:08;9.00;99.90
22071;DHT22;11200;51.488;6.668;2023-02-19T18:49:34;9.10;99.90
22071;DHT22;11200;51.488;6.668;2023-02-19T18:52:00;9.00;99.90
22071;DHT22;11200;51.488;6.668;2023-02-19T18:54:30;9.00;99.90
22071;DHT22;11200;51.488;6.668;2023-02-19T18:56:56;9.00;99.90
22071;DHT22;11200;51.488;6.668;2023-02-19T18:59:22;9.00;99.90
22071;DHT22;11200;51.488;6.668;2023-02-19T19:01:49;9.00;99.90
22071;DHT22;11200;51.488;6.668;2023-02-19T19:04:15;8.90;99.90
22071;DHT22;11200;51.488;6.668;2023-02-19T19:06:41;8.90;99.90
22071;DHT22;11200;51.488;6.668;2023-02-19T19:09:06;8.90;99.90
22071;DHT22;11200;51.488;6.668;2023-02-19T19:11:33;8.90;99.90
22071;DHT22;11200;51.488;6.668;2023-02-19T19:13:58;8.90;99.90
22071;DHT22;11200;51.488;6.668;2023-02-19T19:16:25;8.90;99.90
22071;DHT22;11200;51.488;6.668;2023-02-19T19:18:52;8.90;99.90
22071;DHT22;11200;51.488;6.668;2023-02-19T19:21:18;8.90;99.90
22071;DHT22;11200;51.488;6.668;2023-02-19T19:23:44;8.80;99.90
22071;DHT22;11200;51.488;6.668;2023-02-19T19:26:10;8.80;99.90
22071;DHT22;11200;51.488;6.668;2023-02-19T19:28:36;8.80;99.90
22071;DHT22;11200;51.488;6.668;2023-02-19T19:31:04;8.70;99.90
22071;DHT22;11200;51.488;6.668;2023-02-19T19:33:29;8.80;99.90
22071;DHT22;11200;51.488;6.668;2023-02-19T19:35:55;8.70;99.90
22071;DHT22;11200;51.488;6.668;2023-02-19T19:38:21;8.80;99.90
22071;DHT22;11200;51.488;6.668;2023-02-19T19:40:47;9.20;99.90
22071;DHT22;11200;51.488;6.668;2023-02-19T19:43:13;8.70;99.90
22071;DHT22;11200;51.488;6.668;2023-02-19T19:45:40;8.70;99.90
22071;DHT22;11200;51.488;6.668;2023-02-19T19:48:05;8.70;99.90
22071;DHT22;11200;51.488;6.668;2023-02-19T19:50:31;8.70;99.90
22071;DHT22;11200;51.488;6.668;2023-02-19T19:52:56;8.70;99.90
22071;DHT22;11200;51.488;6.668;2023-02-19T19:55:22;8.70;99.90
22071;DHT22;11200;51.488;6.668;2023-02-19T19:57:48;9.10;99.90
22071;DHT22;11200;51.488;6.668;2023-02-19T20:00:16;8.70;99.90
22071;DHT22;11200;51.488;6.668;2023-02-19T20:02:44;8.60;99.90
22071;DHT22;11200;51.488;6.668;2023-02-19T20:05:11;8.60;99.90
22071;DHT22;11200;51.488;6.668;2023-02-19T20:07:37;8.60;99.90
22071;DHT22;11200;51.488;6.668;2023-02-19T20:10:06;8.60;99.90
22071;DHT22;11200;51.488;6.668;2023-02-19T20:12:32;8.60;99.90
22071;DHT22;11200;51.488;6.668;2023-02-19T20:14:57;8.50;99.90
22071;DHT22;11200;51.488;6.668;2023-02-19T20:17:24;8.60;99.90
22071;DHT22;11200;51.488;6.668;2023-02-19T20:19:53;8.50;99.90
22071;DHT22;11200;51.488;6.668;2023-02-19T20:22:20;8.50;99.90
22071;DHT22;11200;51.488;6.668;2023-02-19T20:24:53;8.80;99.90
22071;DHT22;11200;51.488;6.668;2023-02-19T20:27:20;8.40;99.90
22071;DHT22;11200;51.488;6.668;2023-02-19T20:29:47;8.40;99.90
22071;DHT22;11200;51.488;6.668;2023-02-19T20:32:15;8.40;99.90
22071;DHT22;11200;51.488;6.668;2023-02-19T20:34:44;8.40;99.90
22071;DHT22;11200;51.488;6.668;2023-02-19T20:37:10;8.40;99.90
22071;DHT22;11200;51.488;6.668;2023-02-19T20:39:36;8.40;99.90
22071;DHT22;11200;51.488;6.668;2023-02-19T20:42:02;8.40;99.90
22071;DHT22;11200;51.488;6.668;2023-02-19T20:44:28;8.40;99.90
22071;DHT22;11200;51.488;6.668;2023-02-19T20:46:55;8.40;99.90
22071;DHT22;11200;51.488;6.668;2023-02-19T20:49:26;8.30;99.90
22071;DHT22;11200;51.488;6.668;2023-02-19T20:51:57;8.30;99.90
22071;DHT22;11200;51.488;6.668;2023-02-19T20:54:26;8.30;99.90
22071;DHT22;11200;51.488;6.668;2023-02-19T20:56:55;8.30;99.90
22071;DHT22;11200;51.488;6.668;2023-02-19T20:59:25;8.30;99.90
22071;DHT22;11200;51.488;6.668;2023-02-19T21:01:56;8.30;99.90
22071;DHT22;11200;51.488;6.668;2023-02-19T21:04:22;8.20;99.90
22071;DHT22;11200;51.488;6.668;2023-02-19T21:06:48;8.20;99.90
22071;DHT22;11200;51.488;6.668;2023-02-19T21:09:20;8.30;99.90
22071;DHT22;11200;51.488;6.668;2023-02-19T21:11:47;8.10;99.90
22071;DHT22;11200;51.488;6.668;2023-02-19T21:14:15;8.30;99.90
22071;DHT22;11200;51.488;6.668;2023-02-19T21:16:41;8.10;99.90
22071;DHT22;11200;51.488;6.668;2023-02-19T21:19:07;8.10;99.90
22071;DHT22;11200;51.488;6.668;2023-02-19T21:21:33;8.10;99.90
22071;DHT22;11200;51.488;6.668;2023-02-19T21:24:01;8.00;99.90
22071;DHT22;11200;51.488;6.668;2023-02-19T21:26:36;8.00;99.90
22071;DHT22;11200;51.488;6.668;2023-02-19T21:29:03;7.90;99.90
22071;DHT22;11200;51.488;6.668;2023-02-19T21:31:45;7.90;99.90
22071;DHT22;11200;51.488;6.668;2023-02-19T21:34:13;7.90;99.90
22071;DHT22;11200;51.488;6.668;2023-02-19T21:36:40;7.80;99.90
22071;DHT22;11200;51.488;6.668;2023-02-19T21:39:07;7.80;99.90
22071;DHT22;11200;51.488;6.668;2023-02-19T21:41:34;7.80;99.90
22071;DHT22;11200;51.488;6.668;2023-02-19T21:44:02;7.70;99.90
22071;DHT22;11200;51.488;6.668;2023-02-19T21:46:28;7.70;99.90
22071;DHT22;11200;51.488;6.668;2023-02-19T21:48:55;7.70;99.90
22071;DHT22;11200;51.488;6.668;2023-02-19T21:51:36;7.60;99.90
22071;DHT22;11200;51.488;6.668;2023-02-19T21:54:03;7.60;99.90
22071;DHT22;11200;51.488;6.668;2023-02-19T21:56:31;7.60;99.90
22071;DHT22;11200;51.488;6.668;2023-02-19T21:58:57;7.60;99.90
22071;DHT22;11200;51.488;6.668;2023-02-19T22:01:33;7.60;99.90
22071;DHT22;11200;51.488;6.668;2023-02-19T22:04:03;7.50;99.90
22071;DHT22;11200;51.488;6.668;2023-02-19T22:06:41;7.40;99.90
22071;DHT22;11200;51.488;6.668;2023-02-19T22:09:21;7.40;99.90
22071;DHT22;11200;51.488;6.668;2023-02-19T22:11:53;7.40;99.90
22071;DHT22;11200;51.488;6.668;2023-02-19T22:14:23;7.30;99.90
22071;DHT22;11200;51.488;6.668;2023-02-19T22:16:50;7.30;99.90
22071;DHT22;11200;51.488;6.668;2023-02-19T22:19:16;7.20;99.90
22071;DHT22;11200;51.488;6.668;2023-02-19T22:21:43;7.20;99.90
22071;DHT22;11200;51.488;6.668;2023-02-19T22:24:17;7.20;99.90
22071;DHT22;11200;51.488;6.668;2023-02-19T22:26:43;7.10;99.90
22071;DHT22;11200;51.488;6.668;2023-02-19T22:29:13;7.10;99.90
22071;DHT22;11200;51.488;6.668;2023-02-19T22:31:51;7.10;99.90
22071;DHT22;11200;51.488;6.668;2023-02-19T22:34:18;7.10;99.90
22071;DHT22;11200;51.488;6.668;2023-02-19T22:36:46;7.00;99.90
22071;DHT22;11200;51.488;6.668;2023-02-19T22:39:21;7.00;99.90
22071;DHT22;11200;51.488;6.668;2023-02-19T22:41:47;6.90;99.90
22071;DHT22;11200;51.488;6.668;2023-02-19T22:44:14;7.00;99.90
22071;DHT22;11200;51.488;6.668;2023-02-19T22:46:49;6.90;99.90
22071;DHT22;11200;51.488;6.668;2023-02-19T22:49:15;6.90;99.90
22071;DHT22;11200;51.488;6.668;2023-02-19T22:54:20;6.80;99.90
22071;DHT22;11200;51.488;6.668;2023-02-19T22:56:52;6.80;99.90
22071;DHT22;11200;51.488;6.668;2023-02-19T22:59:18;6.70;99.90
22071;DHT22;11200;51.488;6.668;2023-02-19T23:01:44;6.80;99.90
22071;DHT22;11200;51.488;6.668;2023-02-19T23:04:10;6.70;99.90
22071;DHT22;11200;51.488;6.668;2023-02-19T23:06:36;6.70;99.90
22071;DHT22;11200;51.488;6.668;2023-02-19T23:09:05;6.60;99.90
22071;DHT22;11200;51.488;6.668;2023-02-19T23:11:33;6.60;99.90
22071;DHT22;11200;51.488;6.668;2023-02-19T23:14:00;6.60;99.90
